createdAt,value
2023-03-22T00:02:01.717Z,100017.94
2023-03-22T00:04:28.608Z,100005.91
2023-03-22T00:06:55.619Z,99998.81
2023-03-22T00:09:22.506Z,99989.69
2023-03-22T00:11:51.193Z,99987.47
2023-03-22T00:14:18.439Z,99980.19
2023-03-22T00:16:46.577Z,99981.19
2023-03-22T00:19:13.440Z,99977.09
2023-03-22T00:21:40.322Z,99981.19
2023-03-22T00:24:07.562Z,99969.56
2023-03-22T00:26:36.209Z,99973.66
2023-03-22T00:29:03.119Z,99958.59
2023-03-22T00:31:29.994Z,99967.56
2023-03-22T00:33:57.700Z,99957.81
2023-03-22T00:36:24.613Z,99956.34
2023-03-22T00:38:52.271Z,99943.53
2023-03-22T00:41:21.144Z,99949.00
2023-03-22T00:43:48.510Z,99926.09
2023-03-22T00:46:16.208Z,99933.00
2023-03-22T00:48:43.365Z,99938.47
2023-03-22T00:51:10.767Z,99922.00
2023-03-22T00:53:37.654Z,99916.53
2023-03-22T00:56:05.233Z,99901.69
2023-03-22T00:58:32.371Z,99907.59
2023-03-22T01:00:59.394Z,99897.59
2023-03-22T01:03:26.361Z,99883.94
2023-03-22T01:05:55.754Z,99867.31
2023-03-22T01:08:23.337Z,99861.63
2023-03-22T01:10:50.630Z,99871.03
2023-03-22T01:13:18.100Z,99864.72
2023-03-22T01:15:45.245Z,99848.25
2023-03-22T01:18:12.194Z,99833.19
2023-03-22T01:20:39.368Z,99841.13
2023-03-22T01:23:06.529Z,99826.09
2023-03-22T01:25:33.676Z,99838.69
2023-03-22T01:28:02.999Z,99836.84
2023-03-22T01:30:30.204Z,99832.19
2023-03-22T01:32:57.142Z,99832.19
2023-03-22T01:35:24.263Z,99833.84
2023-03-22T01:37:51.107Z,99830.97
2023-03-22T01:40:17.951Z,99827.91
2023-03-22T01:42:45.041Z,99821.63
2023-03-22T01:45:14.941Z,99818.53
2023-03-22T01:47:43.153Z,99812.47
2023-03-22T01:50:10.338Z,99810.19
2023-03-22T01:52:37.863Z,99795.78
2023-03-22T01:55:05.384Z,99792.53
2023-03-22T01:57:33.761Z,99789.84
2023-03-22T02:00:00.908Z,99795.56
2023-03-22T02:02:31.159Z,99787.00
2023-03-22T02:04:58.349Z,99769.53
2023-03-22T02:07:28.226Z,99763.41
2023-03-22T02:09:55.077Z,99779.72
2023-03-22T02:12:22.283Z,99767.50
2023-03-22T02:14:52.175Z,99748.59
2023-03-22T02:17:22.080Z,99756.69
2023-03-22T02:19:52.234Z,99752.03
2023-03-22T02:22:22.072Z,99757.31
2023-03-22T02:24:51.957Z,99747.75
2023-03-22T02:27:22.145Z,99747.75
2023-03-22T02:29:52.786Z,99726.84
2023-03-22T02:32:22.677Z,99732.75
2023-03-22T02:34:54.152Z,99728.84
2023-03-22T02:37:24.267Z,99726.66
2023-03-22T02:39:54.379Z,99718.50
2023-03-22T02:42:27.779Z,99717.28
2023-03-22T02:44:54.977Z,99712.81
2023-03-22T02:47:25.694Z,99700.19
2023-03-22T02:49:57.117Z,99689.63
2023-03-22T02:52:27.106Z,99706.53
2023-03-22T02:54:57.334Z,99693.31
2023-03-22T02:57:27.218Z,99703.03
2023-03-22T02:59:55.846Z,99684.34
2023-03-22T03:02:23.751Z,99694.28
2023-03-22T03:04:51.580Z,99683.53
2023-03-22T03:07:22.149Z,99687.81
2023-03-22T03:09:49.403Z,99679.91
2023-03-22T03:12:19.765Z,99678.66
2023-03-22T03:14:46.620Z,99665.44
2023-03-22T03:17:14.743Z,99666.25
2023-03-22T03:19:47.104Z,99660.75
2023-03-22T03:22:16.941Z,99651.66
2023-03-22T03:24:49.320Z,99647.19
2023-03-22T03:27:17.865Z,99640.63
2023-03-22T03:29:49.991Z,99645.50
2023-03-22T03:32:19.941Z,99643.06
2023-03-22T03:34:51.633Z,99651.22
2023-03-22T03:37:22.219Z,99635.78
2023-03-22T03:39:53.210Z,99638.41
2023-03-22T03:42:22.172Z,99640.88
2023-03-22T03:44:49.261Z,99652.44
2023-03-22T03:47:16.486Z,99638.22
2023-03-22T03:49:43.333Z,99635.16
2023-03-22T03:52:10.760Z,99632.72
2023-03-22T03:54:37.563Z,99622.56
2023-03-22T03:57:04.374Z,99632.72
2023-03-22T03:59:31.223Z,99625.81
2023-03-22T04:01:58.125Z,99618.50
2023-03-22T04:04:27.387Z,99616.88
2023-03-22T04:06:56.996Z,99615.81
2023-03-22T04:09:24.564Z,99613.97
2023-03-22T04:11:51.823Z,99618.81
2023-03-22T04:14:18.887Z,99623.09
2023-03-22T04:16:45.772Z,99612.53
2023-03-22T04:19:13.027Z,99600.34
2023-03-22T04:21:39.859Z,99616.59
2023-03-22T04:24:06.933Z,99612.53
2023-03-22T04:26:33.966Z,99612.53
2023-03-22T04:29:03.155Z,99622.06
2023-03-22T04:31:31.104Z,99619.66
2023-03-22T04:34:00.656Z,99614.97
2023-03-22T04:36:31.520Z,99618.22
2023-03-22T04:38:58.451Z,99625.97
2023-03-22T04:41:25.460Z,99606.22
2023-03-22T04:43:52.259Z,99603.81
2023-03-22T04:46:21.563Z,99615.19
2023-03-22T04:48:48.629Z,99599.34
2023-03-22T04:51:15.893Z,99617.00
2023-03-22T04:53:42.835Z,99610.28
2023-03-22T04:56:11.163Z,99609.88
2023-03-22T04:58:40.574Z,99612.31
2023-03-22T05:01:08.278Z,99609.25
2023-03-22T05:03:35.346Z,99613.72
2023-03-22T05:06:02.798Z,99610.47
2023-03-22T05:08:30.773Z,99610.25
2023-03-22T05:10:59.352Z,99618.16
2023-03-22T05:13:27.469Z,99612.88
2023-03-22T05:15:54.969Z,99616.94
2023-03-22T05:18:22.451Z,99603.16
2023-03-22T05:20:49.305Z,99608.81
2023-03-22T05:23:19.400Z,99612.66
2023-03-22T05:25:47.079Z,99608.19
2023-03-22T05:28:14.582Z,99610.41
2023-03-22T05:30:42.237Z,99613.84
2023-03-22T05:33:09.721Z,99615.50
2023-03-22T05:35:37.507Z,99611.84
2023-03-22T05:38:04.679Z,99609.59
2023-03-22T05:40:31.772Z,99614.03
2023-03-22T05:42:58.661Z,99613.25
2023-03-22T05:45:25.982Z,99610.22
2023-03-22T05:47:53.465Z,99615.69
2023-03-22T05:50:21.778Z,99609.81
2023-03-22T05:52:49.176Z,99614.03
2023-03-22T05:55:18.052Z,99617.50
2023-03-22T05:57:51.613Z,99621.19
2023-03-22T06:00:19.346Z,99616.69
2023-03-22T06:02:47.533Z,99619.94
2023-03-22T06:05:15.296Z,99613.25
2023-03-22T06:07:42.627Z,99618.53
2023-03-22T06:10:11.612Z,99618.53
2023-03-22T06:12:38.543Z,99615.03
2023-03-22T06:15:05.899Z,99614.84
2023-03-22T06:17:32.908Z,99613.81
2023-03-22T06:19:59.921Z,99607.16
2023-03-22T06:22:26.824Z,99606.56
2023-03-22T06:24:53.697Z,99609.59
2023-03-22T06:27:20.577Z,99610.00
2023-03-22T06:29:51.128Z,99618.13
2023-03-22T06:32:18.054Z,99601.47
2023-03-22T06:34:45.043Z,99610.03
2023-03-22T06:37:11.896Z,99596.59
2023-03-22T06:39:38.736Z,99609.81
2023-03-22T06:42:05.989Z,99599.66
2023-03-22T06:44:32.879Z,99609.81
2023-03-22T06:46:59.738Z,99595.19
2023-03-22T06:49:28.142Z,99591.53
2023-03-22T06:51:55.091Z,99591.56
2023-03-22T06:54:22.112Z,99577.75
2023-03-22T06:56:49.132Z,99579.59
2023-03-22T06:59:16.026Z,99573.50
2023-03-22T07:01:43.110Z,99554.22
2023-03-22T07:04:10.291Z,99525.56
2023-03-22T07:06:37.249Z,99520.69
2023-03-22T07:09:04.137Z,99547.31
2023-03-22T07:11:31.009Z,99540.66
2023-03-22T07:13:58.374Z,99562.16
2023-03-22T07:16:25.424Z,99584.31
2023-03-22T07:18:52.382Z,99533.13
2023-03-22T07:21:19.303Z,99546.13
2023-03-22T07:23:46.183Z,99585.75
2023-03-22T07:26:13.733Z,99592.63
2023-03-22T07:28:44.808Z,99596.31
2023-03-22T07:31:12.232Z,99598.31
2023-03-22T07:33:39.590Z,99598.97
2023-03-22T07:36:07.331Z,99598.13
2023-03-22T07:38:34.788Z,99606.25
2023-03-22T07:41:01.810Z,99607.69
2023-03-22T07:43:28.744Z,99613.59
2023-03-22T07:45:55.857Z,99604.88
2023-03-22T07:48:23.312Z,99610.97
2023-03-22T07:50:50.539Z,99622.75
2023-03-22T07:53:17.603Z,99622.16
2023-03-22T07:55:44.477Z,99629.50
2023-03-22T07:58:11.333Z,99627.88
2023-03-22T08:00:38.531Z,99627.66
2023-03-22T08:03:06.197Z,99620.53
2023-03-22T08:05:33.307Z,99608.16
2023-03-22T08:08:00.272Z,99615.69
2023-03-22T08:10:27.195Z,99620.16
2023-03-22T08:12:54.281Z,99616.94
2023-03-22T08:15:22.635Z,99614.88
2023-03-22T08:17:50.268Z,99628.28
2023-03-22T08:20:18.698Z,99623.63
2023-03-22T08:22:46.158Z,99614.91
2023-03-22T08:25:13.135Z,99625.28
2023-03-22T08:27:40.263Z,99630.97
2023-03-22T08:30:07.854Z,99630.97
2023-03-22T08:32:35.191Z,99631.56
2023-03-22T08:35:02.202Z,99625.06
2023-03-22T08:37:29.211Z,99623.22
2023-03-22T08:39:56.741Z,99614.72
2023-03-22T08:42:23.663Z,99621.81
2023-03-22T08:44:52.631Z,99612.06
2023-03-22T08:47:19.624Z,99613.09
2023-03-22T08:49:46.603Z,99625.09
2023-03-22T08:52:13.822Z,99621.81
2023-03-22T08:54:41.669Z,99634.22
2023-03-22T08:57:09.697Z,99635.22
2023-03-22T08:59:36.706Z,99639.31
2023-03-22T09:02:05.507Z,99640.94
2023-03-22T09:04:32.675Z,99646.00
2023-03-22T09:06:59.655Z,99646.00
2023-03-22T09:09:26.612Z,99653.13
2023-03-22T09:11:53.499Z,99655.19
2023-03-22T09:14:20.428Z,99652.13
2023-03-22T09:16:47.912Z,99661.28
2023-03-22T09:19:14.856Z,99662.69
2023-03-22T09:21:41.812Z,99658.00
2023-03-22T09:24:09.065Z,99654.16
2023-03-22T09:26:37.433Z,99658.03
2023-03-22T09:29:04.676Z,99666.78
2023-03-22T09:31:31.731Z,99667.81
2023-03-22T09:33:59.865Z,99653.78
2023-03-22T09:36:26.795Z,99653.75
2023-03-22T09:38:54.180Z,99645.59
2023-03-22T09:41:21.846Z,99655.56
2023-03-22T09:43:52.187Z,99649.66
2023-03-22T09:46:24.859Z,99652.69
2023-03-22T09:48:52.253Z,99656.78
2023-03-22T09:51:27.501Z,99660.41
2023-03-22T09:53:54.909Z,99665.88
2023-03-22T09:56:25.310Z,99663.03
2023-03-22T09:58:57.137Z,99664.41
2023-03-22T10:01:28.800Z,99663.63
2023-03-22T10:03:57.820Z,99661.59
2023-03-22T10:06:28.942Z,99660.38
2023-03-22T10:08:58.113Z,99655.09
2023-03-22T10:11:26.654Z,99657.53
2023-03-22T10:13:56.985Z,99659.56
2023-03-22T10:16:27.451Z,99647.16
2023-03-22T10:18:57.461Z,99665.69
2023-03-22T10:21:24.820Z,99655.53
2023-03-22T10:23:56.997Z,99666.56
2023-03-22T10:26:29.781Z,99661.84
2023-03-22T10:29:02.120Z,99655.13
2023-03-22T10:31:30.808Z,99670.41
2023-03-22T10:34:00.216Z,99670.41
2023-03-22T10:36:31.448Z,99668.34
2023-03-22T10:39:02.353Z,99671.19
2023-03-22T10:41:30.424Z,99687.88
2023-03-22T10:43:59.239Z,99670.16
2023-03-22T10:46:29.080Z,99661.97
2023-03-22T10:48:59.306Z,99663.16
2023-03-22T10:51:29.403Z,99667.19
2023-03-22T10:53:58.832Z,99668.97
2023-03-22T10:56:26.055Z,99664.41
2023-03-22T10:58:55.232Z,99669.44
2023-03-22T11:01:26.050Z,99671.03
2023-03-22T11:03:55.914Z,99665.41
2023-03-22T11:06:26.532Z,99671.25
2023-03-22T11:08:57.799Z,99664.34
2023-03-22T11:11:27.996Z,99662.28
2023-03-22T11:14:02.707Z,99655.72
2023-03-22T11:16:31.365Z,99659.97
2023-03-22T11:19:01.600Z,99660.97
2023-03-22T11:21:30.939Z,99656.00
2023-03-22T11:24:01.776Z,99652.50
2023-03-22T11:26:30.580Z,99676.16
2023-03-22T11:29:03.104Z,99670.28
2023-03-22T11:31:48.056Z,99673.34
2023-03-22T11:34:18.102Z,99667.16
2023-03-22T11:39:16.111Z,99649.28
2023-03-22T11:41:45.708Z,99632.91
2023-03-22T11:44:14.185Z,99639.25
2023-03-22T11:46:49.388Z,99639.69
2023-03-22T11:49:18.274Z,99640.88
2023-03-22T11:51:46.273Z,99641.22
2023-03-22T11:54:17.306Z,99646.69
2023-03-22T11:56:46.827Z,99648.28
2023-03-22T11:59:14.167Z,99639.84
2023-03-22T12:01:44.550Z,99644.66
2023-03-22T12:04:14.745Z,99633.31
2023-03-22T12:06:43.160Z,99636.94
2023-03-22T12:09:17.844Z,99627.72
2023-03-22T12:11:47.811Z,99629.72
2023-03-22T12:14:16.269Z,99628.09
2023-03-22T12:16:46.826Z,99629.84
2023-03-22T12:19:20.351Z,99632.88
2023-03-22T12:21:49.541Z,99636.13
2023-03-22T12:24:25.150Z,99616.47
2023-03-22T12:26:54.685Z,99615.69
2023-03-22T12:29:22.094Z,99621.13
2023-03-22T12:31:57.523Z,99622.53
2023-03-22T12:34:29.622Z,99620.88
2023-03-22T12:36:57.964Z,99619.88
2023-03-22T12:39:25.564Z,99618.03
2023-03-22T12:41:54.753Z,99618.47
2023-03-22T12:44:23.563Z,99612.56
2023-03-22T12:46:54.291Z,99613.47
2023-03-22T12:49:22.212Z,99618.34
2023-03-22T12:51:50.918Z,99623.19
2023-03-22T12:54:20.032Z,99634.28
2023-03-22T12:56:47.084Z,99621.00
2023-03-22T12:59:17.885Z,99616.84
2023-03-22T13:01:51.411Z,99611.06
2023-03-22T13:04:21.772Z,99611.06
2023-03-22T13:06:52.023Z,99610.19
2023-03-22T13:09:20.929Z,99618.28
2023-03-22T13:11:49.834Z,99607.75
2023-03-22T13:14:20.919Z,99614.09
2023-03-22T13:16:50.523Z,99605.31
2023-03-22T13:19:19.447Z,99608.78
2023-03-22T13:21:49.169Z,99609.97
2023-03-22T13:24:18.594Z,99611.94
2023-03-22T13:26:49.790Z,99621.09
2023-03-22T13:29:19.236Z,99622.13
2023-03-22T13:31:55.475Z,99616.00
2023-03-22T13:34:32.178Z,99617.25
2023-03-22T13:37:04.187Z,99614.47
2023-03-22T13:39:35.066Z,99599.56
2023-03-22T13:42:07.414Z,99601.41
2023-03-22T13:44:37.723Z,99580.00
2023-03-22T13:47:08.180Z,99564.66
2023-03-22T13:49:39.007Z,99566.09
2023-03-22T13:52:07.824Z,99561.47
2023-03-22T13:54:41.149Z,99561.00
2023-03-22T13:57:11.368Z,99540.63
2023-03-22T13:59:49.123Z,99529.50
2023-03-22T14:02:24.802Z,99531.81
2023-03-22T14:04:56.494Z,99519.25
2023-03-22T14:07:26.734Z,99529.34
2023-03-22T14:09:56.215Z,99524.34
2023-03-22T14:12:28.301Z,99519.34
2023-03-22T14:14:57.781Z,99511.97
2023-03-22T14:17:28.047Z,99503.44
2023-03-22T14:19:56.982Z,99504.88
2023-03-22T14:52:13.568Z,99519.53
2023-03-22T14:54:43.230Z,99537.91
2023-03-22T14:57:13.388Z,99533.06
2023-03-22T14:59:42.910Z,99548.03
2023-03-22T15:02:13.477Z,99546.06
2023-03-22T15:04:42.017Z,99561.97
2023-03-22T15:07:10.575Z,99573.25
2023-03-22T15:09:38.003Z,99570.38
2023-03-22T15:12:06.190Z,99551.22
2023-03-22T15:14:34.918Z,99552.16
2023-03-22T15:17:02.490Z,99556.75
2023-03-22T15:19:34.281Z,99547.00
2023-03-22T15:22:04.657Z,99551.75
2023-03-22T15:24:35.055Z,99568.56
2023-03-22T15:27:03.722Z,99552.25
2023-03-22T15:29:36.432Z,99546.97
2023-03-22T15:32:04.992Z,99554.34
2023-03-22T15:34:33.831Z,99562.13
2023-03-22T15:37:02.116Z,99561.75
2023-03-22T15:39:33.560Z,99555.66
2023-03-22T15:42:03.910Z,99539.34
2023-03-22T15:44:33.540Z,99536.16
2023-03-22T15:47:09.568Z,99528.41
2023-03-22T15:49:39.156Z,99540.19
2023-03-22T15:52:10.035Z,99534.91
2023-03-22T15:54:41.635Z,99530.81
2023-03-22T15:57:11.465Z,99525.25
2023-03-22T15:59:42.024Z,99528.31
2023-03-22T16:02:18.445Z,99522.63
2023-03-22T16:04:46.202Z,99530.72
2023-03-22T16:07:13.551Z,99523.59
2023-03-22T16:09:40.758Z,99526.03
2023-03-22T16:12:11.119Z,99513.56
2023-03-22T16:14:40.113Z,99505.41
2023-03-22T16:17:09.571Z,99499.88
2023-03-22T16:19:37.393Z,99487.88
2023-03-22T16:22:05.411Z,99485.44
2023-03-22T16:24:32.755Z,99481.28
2023-03-22T16:27:00.298Z,99483.53
2023-03-22T16:29:27.873Z,99470.63
2023-03-22T16:31:56.264Z,99467.75
2023-03-22T16:34:24.551Z,99466.94
2023-03-22T16:36:52.125Z,99469.44
2023-03-22T16:39:19.882Z,99457.22
2023-03-22T16:41:47.220Z,99445.56
2023-03-22T16:44:18.105Z,99441.97
2023-03-22T16:46:46.116Z,99435.25
2023-03-22T16:49:13.658Z,99441.59
2023-03-22T16:51:41.156Z,99444.69
2023-03-22T16:54:10.577Z,99443.06
2023-03-22T16:56:37.936Z,99451.25
2023-03-22T16:59:05.544Z,99441.31
2023-03-22T17:01:33.342Z,99444.59
2023-03-22T17:04:01.324Z,99438.50
2023-03-22T17:06:34.994Z,99428.75
2023-03-22T17:09:02.515Z,99440.78
2023-03-22T17:11:30.249Z,99445.94
2023-03-22T17:14:01.174Z,99442.34
2023-03-22T17:16:29.491Z,99446.88
2023-03-22T17:18:57.803Z,99437.13
2023-03-22T17:21:25.063Z,99437.13
2023-03-22T17:23:52.227Z,99430.66
2023-03-22T17:26:19.393Z,99444.94
2023-03-22T17:28:46.976Z,99443.91
2023-03-22T17:31:15.122Z,99456.34
2023-03-22T17:33:42.389Z,99464.75
2023-03-22T17:36:10.932Z,99469.44
2023-03-22T17:41:07.070Z,99486.78
2023-03-22T17:43:34.466Z,99477.22
2023-03-22T17:46:49.719Z,99473.38
2023-03-22T17:48:48.775Z,99470.56
2023-03-22T17:51:16.246Z,99457.16
2023-03-22T17:54:27.130Z,99450.84
2023-03-22T17:57:01.141Z,99454.72
2023-03-22T17:59:17.806Z,99440.06
2023-03-22T18:01:45.276Z,99432.16
2023-03-22T18:04:12.684Z,99429.72
2023-03-22T18:06:39.975Z,99424.88
2023-03-22T18:09:07.277Z,99426.91
2023-03-22T18:11:34.617Z,99434.28
2023-03-22T18:14:13.844Z,99432.84
2023-03-22T18:16:52.695Z,99425.34
2023-03-22T18:19:21.146Z,99428.19
2023-03-22T18:21:52.553Z,99417.63
2023-03-22T18:24:19.800Z,99407.22
2023-03-22T18:27:04.969Z,99409.88
2023-03-22T18:29:33.990Z,99406.25
2023-03-22T18:32:12.203Z,99395.66
2023-03-22T18:34:45.652Z,99395.66
2023-03-22T18:37:13.901Z,99391.41
2023-03-22T18:40:24.471Z,99392.06
2023-03-22T18:42:41.105Z,99396.94
2023-03-22T18:45:16.244Z,99390.44
2023-03-22T18:47:44.082Z,99388.78
2023-03-22T18:50:12.859Z,99402.84
2023-03-22T18:55:29.831Z,99386.34
2023-03-22T18:58:03.291Z,99376.00
2023-03-22T19:00:30.783Z,99383.13
2023-03-22T19:02:58.151Z,99367.66
2023-03-22T19:05:25.973Z,99371.13
2023-03-22T19:08:14.542Z,99381.31
2023-03-22T19:10:40.914Z,99378.66
2023-03-22T19:13:08.230Z,99374.13
2023-03-22T19:15:46.240Z,99379.88
2023-03-22T19:18:19.021Z,99371.16
2023-03-22T19:23:16.521Z,99375.66
2023-03-22T19:25:43.789Z,99365.13
2023-03-22T19:28:11.118Z,99357.63
2023-03-22T19:30:38.529Z,99365.38
2023-03-22T19:33:30.088Z,99373.53
2023-03-22T19:35:53.349Z,99378.00
2023-03-22T19:38:21.037Z,99378.81
2023-03-22T19:41:33.564Z,99380.44
2023-03-22T19:43:38.398Z,99377.78
2023-03-22T19:46:10.026Z,99373.69
2023-03-22T19:48:37.594Z,99369.63
2023-03-22T19:51:05.020Z,99355.59
2023-03-22T19:54:12.178Z,99361.91
2023-03-22T19:56:19.744Z,99373.53
2023-03-22T19:58:47.446Z,99357.84
2023-03-22T20:01:14.784Z,99368.84
2023-03-22T20:03:43.734Z,99374.31
2023-03-22T20:06:11.735Z,99378.97
2023-03-22T20:08:39.312Z,99384.91
2023-03-22T20:11:15.110Z,99370.06
2023-03-22T20:13:53.173Z,99366.84
2023-03-22T20:16:23.610Z,99352.00
2023-03-22T20:18:50.718Z,99354.44
2023-03-22T20:21:18.210Z,99360.97
2023-03-22T20:23:45.334Z,99360.13
2023-03-22T20:26:12.532Z,99358.50
2023-03-22T20:28:39.927Z,99346.09
2023-03-22T20:31:08.705Z,99343.88
2023-03-22T20:33:36.901Z,99337.13
2023-03-22T20:36:04.607Z,99336.91
2023-03-22T20:38:32.226Z,99327.13
2023-03-22T20:41:01.197Z,99325.13
2023-03-22T20:43:28.712Z,99322.47
2023-03-22T20:45:56.240Z,99322.69
2023-03-22T20:48:23.923Z,99320.09
2023-03-22T20:50:52.606Z,99307.88
2023-03-22T20:53:19.957Z,99308.91
2023-03-22T20:55:48.869Z,99318.91
2023-03-22T20:58:17.829Z,99317.88
2023-03-22T21:00:45.840Z,99312.78
2023-03-22T21:03:14.033Z,99313.19
2023-03-22T21:05:42.531Z,99316.44
2023-03-22T21:08:10.845Z,99310.91
2023-03-22T21:10:38.299Z,99302.38
2023-03-22T21:13:06.306Z,99292.84
2023-03-22T21:15:33.860Z,99299.75
2023-03-22T21:18:01.088Z,99297.91
2023-03-22T21:20:32.740Z,99289.38
2023-03-22T21:23:00.614Z,99297.91
2023-03-22T21:25:31.144Z,99294.47
2023-03-22T21:27:58.415Z,99298.72
2023-03-22T21:30:26.500Z,99295.84
2023-03-22T21:32:53.662Z,99305.63
2023-03-22T21:35:22.009Z,99282.63
2023-03-22T21:37:49.325Z,99284.09
2023-03-22T21:40:22.287Z,99263.56
2023-03-22T21:42:54.496Z,99273.34
2023-03-22T21:45:21.943Z,99266.22
2023-03-22T21:47:54.002Z,99248.50
2023-03-22T21:50:22.112Z,99243.59
2023-03-22T21:52:49.351Z,99240.53
2023-03-22T21:55:19.074Z,99233.41
2023-03-22T21:57:46.244Z,99231.16
2023-03-22T22:00:19.927Z,99222.19
2023-03-22T22:02:48.759Z,99231.72
2023-03-22T22:05:18.706Z,99221.97
2023-03-22T22:07:48.014Z,99220.34
2023-03-22T22:10:15.701Z,99221.75
2023-03-22T22:12:42.949Z,99218.91
2023-03-22T22:15:10.502Z,99217.63
2023-03-22T22:17:37.680Z,99202.38
2023-03-22T22:20:11.987Z,99213.97
2023-03-22T22:22:41.651Z,99212.16
2023-03-22T22:25:10.914Z,99202.16
2023-03-22T22:27:38.541Z,99208.44
2023-03-22T22:30:07.475Z,99205.78
2023-03-22T22:32:36.661Z,99202.31
2023-03-22T22:35:04.062Z,99205.59
2023-03-22T22:37:31.561Z,99201.56
2023-03-22T22:39:58.982Z,99204.22
2023-03-22T22:42:26.126Z,99194.84
2023-03-22T22:44:53.508Z,99186.91
2023-03-22T22:47:20.671Z,99181.69
2023-03-22T22:49:48.221Z,99184.34
2023-03-22T22:52:15.893Z,99187.34
2023-03-22T22:54:43.093Z,99194.47
2023-03-22T22:57:10.541Z,99189.19
2023-03-22T22:59:37.776Z,99186.56
2023-03-22T23:02:04.894Z,99191.63
2023-03-22T23:04:32.487Z,99182.06
2023-03-22T23:06:59.606Z,99194.53
2023-03-22T23:09:27.720Z,99180.94
2023-03-22T23:11:55.770Z,99190.28
2023-03-22T23:14:30.722Z,99198.72
2023-03-22T23:16:59.330Z,99189.34
2023-03-22T23:19:27.880Z,99191.19
2023-03-22T23:22:03.580Z,99192.22
2023-03-22T23:24:31.404Z,99199.75
2023-03-22T23:26:59.819Z,99193.88
2023-03-22T23:29:27.565Z,99204.84
2023-03-22T23:31:54.596Z,99200.59
2023-03-22T23:34:22.583Z,99210.94
2023-03-22T23:36:50.290Z,99208.72
2023-03-22T23:39:19.081Z,99224.59
2023-03-22T23:41:46.907Z,99216.66
2023-03-22T23:44:14.316Z,99218.72
2023-03-22T23:46:42.298Z,99223.41
2023-03-22T23:49:09.649Z,99217.28
2023-03-22T23:51:38.594Z,99220.53
2023-03-22T23:54:06.823Z,99225.84
2023-03-22T23:56:33.916Z,99220.38
2023-03-22T23:59:01.737Z,99221.84
